Time;durP1;ratioP1;P1;durP2;ratioP2;P2;SDS_P1;SDS_P2;PMS_P1;PMS_P2;Temp;Humidity;BMP_temperature;BMP_pressure;BME280_temperature;BME280_humidity;BME280_pressure;Samples;Min_cycle;Max_cycle;Signal;HPM_P1;HPM_P2
2022/01/29 00:01:33;;;;;;;10.17;4.20;;;;;;;;;;5120922;27;20071;-72
2022/01/29 00:04:00;;;;;;;8.80;3.50;;;;;;;;;;5108140;28;20054;-73
2022/01/29 00:06:27;;;;;;;10.50;3.60;;;;;;;;;;5109015;28;20053;-72
2022/01/29 00:08:56;;;;;;;9.97;3.57;;;;;;;;;;5113630;28;20031;-72
2022/01/29 00:11:28;;;;;;;6.33;2.97;;;;;;;;;;5126100;27;20041;-73
2022/01/29 00:13:54;;;;;;;10.83;4.47;;;;;;;;;;5134034;27;20492;-72
2022/01/29 00:16:21;;;;;;;8.57;2.80;;;;;;;;;;5134066;27;20031;-72
2022/01/29 00:18:48;;;;;;;10.10;3.00;;;;;;;;;;5132591;27;20030;-72
2022/01/29 00:21:15;;;;;;;9.63;3.07;;;;;;;;;;5128451;27;20761;-72
2022/01/29 00:23:41;;;;;;;11.63;3.00;;;;;;;;;;5128642;27;20026;-73
2022/01/29 00:26:08;;;;;;;6.73;3.27;;;;;;;;;;5128551;27;20042;-72
2022/01/29 00:28:35;;;;;;;9.10;3.13;;;;;;;;;;5119141;27;20020;-73
2022/01/29 00:31:03;;;;;;;9.83;4.37;;;;;;;;;;5113186;28;20024;-73
2022/01/29 00:33:30;;;;;;;6.50;3.43;;;;;;;;;;5113309;28;20047;-72
2022/01/29 00:35:57;;;;;;;10.83;2.53;;;;;;;;;;5113090;28;20063;-72
2022/01/29 00:38:24;;;;;;;3.00;2.00;;;;;;;;;;5113130;28;20023;-72
2022/01/29 00:40:50;;;;;;;6.07;2.40;;;;;;;;;;5112146;28;20059;-72
2022/01/29 00:43:17;;;;;;;5.50;1.93;;;;;;;;;;5107857;28;20534;-72
2022/01/29 00:45:44;;;;;;;4.13;1.40;;;;;;;;;;5107385;28;20047;-73
2022/01/29 00:48:10;;;;;;;4.07;1.10;;;;;;;;;;5116625;27;20030;-73
2022/01/29 00:50:37;;;;;;;4.80;1.37;;;;;;;;;;5128021;27;20544;-72
2022/01/29 00:53:04;;;;;;;5.13;1.20;;;;;;;;;;5133545;27;20038;-72
2022/01/29 00:55:31;;;;;;;1.97;0.90;;;;;;;;;;5133310;27;20038;-72
2022/01/29 00:57:57;;;;;;;5.43;1.10;;;;;;;;;;5133287;27;20102;-72
2022/01/29 01:00:24;;;;;;;2.27;1.10;;;;;;;;;;5133178;27;20062;-72
2022/01/29 01:02:51;;;;;;;4.03;0.93;;;;;;;;;;5133136;27;20518;-73
2022/01/29 01:05:17;;;;;;;5.13;1.00;;;;;;;;;;5127734;27;20094;-72
2022/01/29 01:07:45;;;;;;;4.90;1.10;;;;;;;;;;5120368;27;20692;-72
2022/01/29 01:10:13;;;;;;;3.60;0.83;;;;;;;;;;5107643;28;20081;-72
2022/01/29 01:12:39;;;;;;;4.97;1.20;;;;;;;;;;5107381;28;20034;-72
2022/01/29 01:15:06;;;;;;;2.27;1.20;;;;;;;;;;5111980;28;20024;-72
2022/01/29 01:17:33;;;;;;;3.77;1.00;;;;;;;;;;5112507;28;20024;-72
2022/01/29 01:20:00;;;;;;;1.30;1.00;;;;;;;;;;5112166;28;20470;-74
2022/01/29 01:22:26;;;;;;;1.10;0.77;;;;;;;;;;5112480;28;20081;-72
2022/01/29 01:24:54;;;;;;;1.60;0.90;;;;;;;;;;5112739;28;20106;-72
2022/01/29 01:27:21;;;;;;;8.10;1.53;;;;;;;;;;5116023;28;20083;-72
2022/01/29 01:29:48;;;;;;;1.30;0.73;;;;;;;;;;5127407;28;20423;-72
2022/01/29 01:32:14;;;;;;;4.47;0.93;;;;;;;;;;5107671;28;20039;-72
2022/01/29 01:34:47;;;;;;;5.83;1.20;;;;;;;;;;5107590;28;20035;-72
2022/01/29 01:37:27;;;;;;;1.83;0.90;;;;;;;;;;5111048;28;20028;-73
2022/01/29 01:39:54;;;;;;;3.53;1.00;;;;;;;;;;5112462;28;20024;-72
2022/01/29 01:42:21;;;;;;;2.37;1.00;;;;;;;;;;5112364;28;20036;-73
2022/01/29 01:44:48;;;;;;;2.47;1.10;;;;;;;;;;5112501;28;20601;-73
2022/01/29 01:47:16;;;;;;;1.33;0.70;;;;;;;;;;5122501;28;20033;-73
2022/01/29 01:49:43;;;;;;;2.27;0.93;;;;;;;;;;5128227;28;20026;-73
2022/01/29 01:52:12;;;;;;;1.53;0.73;;;;;;;;;;5127925;28;20027;-72
2022/01/29 01:54:39;;;;;;;5.03;1.20;;;;;;;;;;5128019;28;20084;-73
2022/01/29 01:57:06;;;;;;;1.47;0.80;;;;;;;;;;5127855;28;20039;-72
2022/01/29 01:59:33;;;;;;;0.63;0.63;;;;;;;;;;5132043;28;20035;-72
2022/01/29 02:02:00;;;;;;;2.53;0.77;;;;;;;;;;5132958;28;20100;-72
2022/01/29 02:04:27;;;;;;;3.00;0.90;;;;;;;;;;5133036;28;20025;-72
2022/01/29 02:06:54;;;;;;;1.80;0.90;;;;;;;;;;5122908;28;20035;-73
2022/01/29 02:09:23;;;;;;;1.03;0.80;;;;;;;;;;5112189;28;20028;-72
2022/01/29 02:11:51;;;;;;;3.73;1.00;;;;;;;;;;5107619;28;20773;-72
2022/01/29 02:14:19;;;;;;;3.80;1.13;;;;;;;;;;5107278;28;20144;-72
2022/01/29 02:16:46;;;;;;;1.30;0.77;;;;;;;;;;5107329;28;20047;-72
2022/01/29 02:19:13;;;;;;;4.03;1.30;;;;;;;;;;5107042;28;20028;-73
2022/01/29 02:21:40;;;;;;;1.57;1.07;;;;;;;;;;5110739;28;20085;-72
2022/01/29 02:24:07;;;;;;;2.60;1.00;;;;;;;;;;5111805;28;20028;-73
2022/01/29 02:26:33;;;;;;;2.60;1.57;;;;;;;;;;5113218;28;20023;-72
2022/01/29 02:29:00;;;;;;;3.67;1.60;;;;;;;;;;5114087;28;20054;-72
2022/01/29 02:31:27;;;;;;;5.73;2.00;;;;;;;;;;5115512;28;20471;-72
2022/01/29 02:33:53;;;;;;;4.27;2.23;;;;;;;;;;5111918;28;20030;-72
2022/01/29 02:36:20;;;;;;;4.43;2.20;;;;;;;;;;5111540;27;20031;-72
2022/01/29 02:38:47;;;;;;;5.90;2.33;;;;;;;;;;5110499;28;20024;-72
2022/01/29 02:41:14;;;;;;;4.73;2.27;;;;;;;;;;5110230;28;20031;-72
2022/01/29 02:43:45;;;;;;;5.57;2.23;;;;;;;;;;5113496;27;20036;-72
2022/01/29 02:46:29;;;;;;;4.50;2.20;;;;;;;;;;5115523;28;20012;-73
2022/01/29 02:48:59;;;;;;;4.63;2.17;;;;;;;;;;5115322;28;20032;-72
2022/01/29 02:51:25;;;;;;;5.47;1.90;;;;;;;;;;5115372;28;20028;-72
2022/01/29 02:53:52;;;;;;;5.87;2.23;;;;;;;;;;5123188;27;20152;-72
2022/01/29 02:56:19;;;;;;;6.83;2.30;;;;;;;;;;5116782;27;20031;-72
2022/01/29 02:58:46;;;;;;;6.33;2.23;;;;;;;;;;5110300;28;20027;-72
2022/01/29 03:01:13;;;;;;;4.37;2.33;;;;;;;;;;5110198;28;20047;-73
2022/01/29 03:03:40;;;;;;;4.37;1.90;;;;;;;;;;5117417;27;20139;-72
2022/01/29 03:06:09;;;;;;;3.37;1.87;;;;;;;;;;5133970;27;20034;-72
2022/01/29 03:08:36;;;;;;;3.63;1.97;;;;;;;;;;5135718;27;20038;-72
2022/01/29 03:11:03;;;;;;;5.80;2.53;;;;;;;;;;5122855;27;20106;-72
2022/01/29 03:13:30;;;;;;;3.10;1.70;;;;;;;;;;5115030;28;20036;-72
2022/01/29 03:15:56;;;;;;;4.43;1.97;;;;;;;;;;5114972;28;20544;-72
2022/01/29 03:18:23;;;;;;;3.30;1.70;;;;;;;;;;5111210;28;20641;-72
2022/01/29 03:20:50;;;;;;;4.83;2.10;;;;;;;;;;5109748;28;20026;-72
2022/01/29 03:23:17;;;;;;;3.03;1.30;;;;;;;;;;5109791;28;20037;-72
2022/01/29 03:25:43;;;;;;;3.30;1.87;;;;;;;;;;5109763;28;20023;-72
2022/01/29 03:28:10;;;;;;;2.70;1.80;;;;;;;;;;5119555;27;20048;-72
2022/01/29 03:30:37;;;;;;;4.37;2.27;;;;;;;;;;5127771;27;20023;-72
2022/01/29 03:33:03;;;;;;;2.60;1.47;;;;;;;;;;5114423;28;20019;-71
2022/01/29 03:35:30;;;;;;;3.47;1.77;;;;;;;;;;5114201;28;20066;-71
2022/01/29 03:37:57;;;;;;;3.20;1.60;;;;;;;;;;5114270;28;20019;-72
2022/01/29 03:40:23;;;;;;;5.00;1.90;;;;;;;;;;5111100;28;20016;-71
2022/01/29 03:43:06;;;;;;;3.73;1.80;;;;;;;;;;5109348;28;20020;-71
2022/01/29 03:45:33;;;;;;;5.07;1.97;;;;;;;;;;5109339;28;20489;-71
2022/01/29 03:48:01;;;;;;;3.60;2.00;;;;;;;;;;5109595;27;20027;-71
2022/01/29 03:50:28;;;;;;;3.10;1.50;;;;;;;;;;5112119;28;20058;-71
2022/01/29 03:52:54;;;;;;;2.70;1.50;;;;;;;;;;5114187;28;20427;-71
2022/01/29 03:55:21;;;;;;;3.97;1.97;;;;;;;;;;5113827;28;20020;-72
2022/01/29 03:57:48;;;;;;;4.60;1.57;;;;;;;;;;5113803;28;20015;-71
2022/01/29 04:00:15;;;;;;;3.30;1.47;;;;;;;;;;5113979;28;20031;-72
2022/01/29 04:02:42;;;;;;;3.50;1.70;;;;;;;;;;5110870;28;20066;-71
2022/01/29 04:05:08;;;;;;;4.20;1.93;;;;;;;;;;5108987;28;20075;-71
2022/01/29 04:07:35;;;;;;;2.40;1.43;;;;;;;;;;5117177;27;20031;-71
2022/01/29 04:10:02;;;;;;;3.47;1.70;;;;;;;;;;5129732;27;20506;-71
2022/01/29 04:12:34;;;;;;;3.17;1.97;;;;;;;;;;5131606;27;20477;-71
2022/01/29 04:15:01;;;;;;;4.57;1.90;;;;;;;;;;5134303;27;20030;-71
2022/01/29 04:17:27;;;;;;;3.97;1.40;;;;;;;;;;5134589;27;20027;-71
2022/01/29 04:19:54;;;;;;;3.27;1.77;;;;;;;;;;5134208;27;20019;-71
2022/01/29 04:22:21;;;;;;;6.60;2.07;;;;;;;;;;5134214;27;20143;-71
2022/01/29 04:24:47;;;;;;;2.93;1.60;;;;;;;;;;5131376;27;20027;-72
2022/01/29 04:27:21;;;;;;;3.40;1.70;;;;;;;;;;5116739;27;20055;-71
2022/01/29 04:30:00;;;;;;;4.17;1.33;;;;;;;;;;5107895;28;20020;-72
2022/01/29 04:32:55;;;;;;;2.90;1.63;;;;;;;;;;5090128;28;20766;-71
2022/01/29 04:35:16;;;;;;;3.90;1.77;;;;;;;;;;5111348;28;20071;-71
2022/01/29 04:37:43;;;;;;;2.60;1.30;;;;;;;;;;5113453;28;20378;-72
2022/01/29 04:40:10;;;;;;;3.20;1.70;;;;;;;;;;5113209;28;20023;-72
2022/01/29 04:42:36;;;;;;;3.13;1.70;;;;;;;;;;5113316;28;20123;-71
2022/01/29 04:45:03;;;;;;;2.97;1.60;;;;;;;;;;5112977;28;20541;-71
2022/01/29 04:47:30;;;;;;;3.03;1.50;;;;;;;;;;5125606;27;20024;-71
2022/01/29 04:49:57;;;;;;;2.37;1.63;;;;;;;;;;5128644;27;20027;-71
2022/01/29 04:52:23;;;;;;;3.03;1.70;;;;;;;;;;5128146;27;20022;-71
2022/01/29 04:54:50;;;;;;;1.97;1.20;;;;;;;;;;5128087;27;20034;-72
2022/01/29 04:57:17;;;;;;;3.47;1.67;;;;;;;;;;5131398;27;20402;-71
2022/01/29 04:59:43;;;;;;;3.03;1.60;;;;;;;;;;5133633;27;20019;-72
2022/01/29 05:02:10;;;;;;;2.93;1.50;;;;;;;;;;5133210;27;20031;-71
2022/01/29 05:04:37;;;;;;;3.60;2.17;;;;;;;;;;5120889;27;20023;-71
2022/01/29 05:07:04;;;;;;;2.60;1.57;;;;;;;;;;5112932;28;20027;-71
2022/01/29 05:09:31;;;;;;;2.40;1.50;;;;;;;;;;5109699;28;20027;-71
2022/01/29 05:12:00;;;;;;;2.47;1.43;;;;;;;;;;5107441;28;20028;-72
2022/01/29 05:15:01;;;;;;;3.40;1.70;;;;;;;;;;5107695;28;20469;-71
2022/01/29 05:28:10;;;;;;;3.38;1.40;;;;;;;;;;5133235;28;20046;-71
2022/01/29 05:30:37;;;;;;;1.50;1.13;;;;;;;;;;5124873;28;20073;-71
2022/01/29 05:33:03;;;;;;;2.40;1.30;;;;;;;;;;5107526;28;20028;-71
2022/01/29 05:35:30;;;;;;;2.97;1.50;;;;;;;;;;5107626;28;20513;-71
2022/01/29 05:37:57;;;;;;;3.47;1.20;;;;;;;;;;5107229;28;20036;-71
2022/01/29 05:40:24;;;;;;;2.07;1.10;;;;;;;;;;5089871;28;20371;-72
2022/01/29 05:42:50;;;;;;;2.10;1.07;;;;;;;;;;5112482;28;20019;-71
2022/01/29 05:45:17;;;;;;;2.07;1.20;;;;;;;;;;5112673;28;20031;-71
2022/01/29 05:47:45;;;;;;;2.17;1.10;;;;;;;;;;5112491;28;20488;-71
2022/01/29 05:50:12;;;;;;;2.80;1.40;;;;;;;;;;5112561;28;20027;-71
2022/01/29 05:52:38;;;;;;;2.30;1.40;;;;;;;;;;5112267;28;20016;-70
2022/01/29 05:55:06;;;;;;;2.33;1.30;;;;;;;;;;5107366;28;20019;-70
2022/01/29 05:57:32;;;;;;;1.90;1.23;;;;;;;;;;5107110;28;20100;-72
2022/01/29 05:59:59;;;;;;;4.30;1.20;;;;;;;;;;5108450;28;20374;-70
2022/01/29 06:02:26;;;;;;;2.07;1.20;;;;;;;;;;5127857;27;20062;-73
2022/01/29 06:04:52;;;;;;;2.57;1.20;;;;;;;;;;5136429;27;20033;-73
2022/01/29 06:07:19;;;;;;;4.27;1.20;;;;;;;;;;5136705;27;20026;-73
2022/01/29 06:09:47;;;;;;;3.70;1.10;;;;;;;;;;5136943;27;20537;-77
2022/01/29 06:12:14;;;;;;;2.63;1.57;;;;;;;;;;5136797;27;20031;-73
2022/01/29 06:14:41;;;;;;;1.97;1.13;;;;;;;;;;5136492;27;20019;-73
2022/01/29 06:17:08;;;;;;;1.50;1.00;;;;;;;;;;5131944;27;20068;-76
2022/01/29 06:19:35;;;;;;;1.40;0.80;;;;;;;;;;5131632;27;20058;-72
2022/01/29 06:22:07;;;;;;;2.10;1.00;;;;;;;;;;5111126;27;20032;-67
2022/01/29 06:24:34;;;;;;;1.43;0.93;;;;;;;;;;5110807;28;20103;-68
2022/01/29 06:27:00;;;;;;;1.30;0.80;;;;;;;;;;5115383;28;20030;-68
2022/01/29 06:29:27;;;;;;;2.00;0.93;;;;;;;;;;5115498;28;20045;-68
2022/01/29 06:31:54;;;;;;;8.83;1.10;;;;;;;;;;5115740;28;20034;-68
2022/01/29 06:34:20;;;;;;;1.53;0.80;;;;;;;;;;5115746;28;20035;-68
2022/01/29 06:36:47;;;;;;;1.10;0.67;;;;;;;;;;5115733;28;20027;-68
2022/01/29 06:39:14;;;;;;;3.03;0.80;;;;;;;;;;5110899;28;20106;-68
2022/01/29 06:41:40;;;;;;;2.90;0.80;;;;;;;;;;5128762;27;20035;-68
2022/01/29 06:44:07;;;;;;;1.23;0.43;;;;;;;;;;5131204;27;20015;-68
2022/01/29 06:46:34;;;;;;;2.23;0.57;;;;;;;;;;5130862;27;20098;-68
2022/01/29 06:49:00;;;;;;;0.53;0.43;;;;;;;;;;5134819;27;20031;-68
2022/01/29 06:51:27;;;;;;;0.83;0.53;;;;;;;;;;5136032;27;20726;-68
2022/01/29 06:53:54;;;;;;;0.93;0.60;;;;;;;;;;5135830;27;20034;-68
2022/01/29 06:56:20;;;;;;;0.90;0.60;;;;;;;;;;5136204;27;20084;-68
2022/01/29 06:58:47;;;;;;;2.33;0.60;;;;;;;;;;5135758;27;20023;-68
2022/01/29 07:01:14;;;;;;;1.60;0.77;;;;;;;;;;5115678;27;20725;-68
2022/01/29 07:03:40;;;;;;;1.37;0.50;;;;;;;;;;5110018;28;20031;-68
2022/01/29 07:06:07;;;;;;;1.20;0.60;;;;;;;;;;5110019;28;20038;-68
2022/01/29 07:08:37;;;;;;;4.53;0.60;;;;;;;;;;5110221;28;20080;-68
2022/01/29 07:11:04;;;;;;;1.77;0.60;;;;;;;;;;5113639;28;20484;-67
2022/01/29 07:13:31;;;;;;;0.67;0.50;;;;;;;;;;5114763;28;20031;-68
2022/01/29 07:15:58;;;;;;;0.97;0.40;;;;;;;;;;5114900;28;20016;-68
2022/01/29 07:18:24;;;;;;;1.83;0.33;;;;;;;;;;5114812;28;20023;-68
2022/01/29 07:20:51;;;;;;;0.87;0.47;;;;;;;;;;5127286;27;20058;-68
2022/01/29 07:23:18;;;;;;;0.73;0.43;;;;;;;;;;5131456;27;20023;-68
2022/01/29 07:25:45;;;;;;;5.70;0.53;;;;;;;;;;5130180;27;20041;-68
2022/01/29 07:28:11;;;;;;;0.80;0.50;;;;;;;;;;5130274;27;20063;-68
2022/01/29 07:30:38;;;;;;;0.90;0.60;;;;;;;;;;5122710;27;20008;-68
2022/01/29 07:33:05;;;;;;;2.07;0.60;;;;;;;;;;5112690;28;20031;-68
2022/01/29 07:35:31;;;;;;;1.20;0.63;;;;;;;;;;5114299;28;20015;-68
2022/01/29 07:37:58;;;;;;;0.60;0.50;;;;;;;;;;5114689;28;20428;-68
2022/01/29 07:40:25;;;;;;;0.90;0.40;;;;;;;;;;5115315;27;20508;-68
2022/01/29 07:42:51;;;;;;;0.33;0.30;;;;;;;;;;5114686;28;20055;-68
2022/01/29 07:45:18;;;;;;;2.23;0.33;;;;;;;;;;5110954;28;20470;-68
2022/01/29 07:47:45;;;;;;;0.30;0.20;;;;;;;;;;5109297;28;20024;-69
2022/01/29 07:50:11;;;;;;;0.97;0.33;;;;;;;;;;5109159;28;20122;-69
2022/01/29 07:52:38;;;;;;;2.03;0.40;;;;;;;;;;5109056;28;20019;-69
2022/01/29 07:55:07;;;;;;;8.70;1.03;;;;;;;;;;5111637;28;20020;-69
2022/01/29 07:57:34;;;;;;;0.60;0.40;;;;;;;;;;5123252;27;20054;-69
2022/01/29 08:00:00;;;;;;;0.70;0.50;;;;;;;;;;5134828;27;20019;-69
2022/01/29 08:02:27;;;;;;;1.43;0.50;;;;;;;;;;5134656;27;20059;-69
2022/01/29 08:04:54;;;;;;;0.40;0.30;;;;;;;;;;5134830;27;20384;-69
2022/01/29 08:07:20;;;;;;;0.57;0.40;;;;;;;;;;5131486;27;20046;-69
2022/01/29 08:09:47;;;;;;;0.73;0.27;;;;;;;;;;5128778;27;20026;-69
2022/01/29 08:12:14;;;;;;;0.20;0.20;;;;;;;;;;5129167;27;20019;-69
2022/01/29 08:14:41;;;;;;;0.67;0.20;;;;;;;;;;5129287;27;20023;-69
2022/01/29 08:17:08;;;;;;;1.03;0.50;;;;;;;;;;5121374;27;20035;-69
2022/01/29 08:19:34;;;;;;;0.40;0.10;;;;;;;;;;5113845;28;20016;-69
2022/01/29 08:22:01;;;;;;;0.10;0.10;;;;;;;;;;5113789;28;20035;-69
2022/01/29 08:24:27;;;;;;;0.00;0.00;;;;;;;;;;5113662;28;20037;-69
2022/01/29 08:26:54;;;;;;;0.53;0.40;;;;;;;;;;5112671;28;20032;-69
2022/01/29 08:29:21;;;;;;;0.20;0.20;;;;;;;;;;5110982;28;20490;-69
2022/01/29 08:31:47;;;;;;;1.50;0.10;;;;;;;;;;5108316;28;20470;-69
2022/01/29 08:34:14;;;;;;;0.50;0.30;;;;;;;;;;5108241;28;20051;-69
2022/01/29 08:36:41;;;;;;;0.57;0.30;;;;;;;;;;5108552;27;20022;-69
2022/01/29 08:39:08;;;;;;;0.93;0.20;;;;;;;;;;5110065;28;20023;-68
2022/01/29 08:41:34;;;;;;;0.13;0.10;;;;;;;;;;5113318;28;20042;-69
2022/01/29 08:44:01;;;;;;;0.10;0.10;;;;;;;;;;5112875;28;20470;-69
2022/01/29 08:46:28;;;;;;;0.20;0.10;;;;;;;;;;5113412;28;20493;-69
2022/01/29 08:48:54;;;;;;;0.47;0.10;;;;;;;;;;5113384;28;20024;-69
2022/01/29 08:51:21;;;;;;;0.10;0.00;;;;;;;;;;5110961;28;20024;-69
2022/01/29 08:53:48;;;;;;;0.30;0.10;;;;;;;;;;5107956;28;20544;-69
2022/01/29 08:56:16;;;;;;;1.97;0.10;;;;;;;;;;5120848;27;20042;-69
2022/01/29 08:58:43;;;;;;;0.97;0.00;;;;;;;;;;5128472;27;20035;-69
2022/01/29 09:01:10;;;;;;;1.67;0.00;;;;;;;;;;5129748;27;20156;-69
2022/01/29 09:03:37;;;;;;;0.20;0.10;;;;;;;;;;5133709;27;20023;-69
2022/01/29 09:06:04;;;;;;;0.17;0.00;;;;;;;;;;5133558;27;20026;-69
2022/01/29 09:08:31;;;;;;;0.10;0.00;;;;;;;;;;5133540;27;20030;-69
2022/01/29 09:10:58;;;;;;;0.00;0.00;;;;;;;;;;5133600;27;20042;-69
2022/01/29 09:13:28;;;;;;;2.03;0.00;;;;;;;;;;5131524;27;20027;-68
2022/01/29 09:15:56;;;;;;;0.10;0.10;;;;;;;;;;5115585;27;20032;-68
2022/01/29 09:18:22;;;;;;;0.23;0.10;;;;;;;;;;5107369;28;20023;-69
2022/01/29 09:20:49;;;;;;;0.20;0.10;;;;;;;;;;5107462;28;20478;-69
2022/01/29 09:23:16;;;;;;;0.63;0.10;;;;;;;;;;5108812;28;20466;-69
2022/01/29 09:25:42;;;;;;;0.20;0.00;;;;;;;;;;5112752;28;20103;-69
2022/01/29 09:28:10;;;;;;;0.10;0.10;;;;;;;;;;5113759;28;20015;-69
2022/01/29 09:30:36;;;;;;;0.00;0.00;;;;;;;;;;5112364;28;20085;-69
2022/01/29 09:33:03;;;;;;;0.83;0.00;;;;;;;;;;5112754;28;20023;-69
2022/01/29 09:35:30;;;;;;;0.57;0.03;;;;;;;;;;5110824;28;20032;-68
2022/01/29 09:37:57;;;;;;;0.00;0.00;;;;;;;;;;5109909;28;20020;-69
2022/01/29 09:40:24;;;;;;;0.10;0.00;;;;;;;;;;5111555;28;20485;-69
2022/01/29 09:42:52;;;;;;;0.13;0.00;;;;;;;;;;5112647;27;20031;-69
2022/01/29 09:45:20;;;;;;;0.00;0.00;;;;;;;;;;5112589;28;20051;-68
2022/01/29 09:47:48;;;;;;;0.00;0.00;;;;;;;;;;5116437;28;20539;-69
2022/01/29 09:50:16;;;;;;;0.13;0.00;;;;;;;;;;5116707;28;20122;-69
2022/01/29 09:52:43;;;;;;;0.00;0.00;;;;;;;;;;5116883;28;20020;-68
2022/01/29 09:55:11;;;;;;;0.13;0.10;;;;;;;;;;5116698;28;20493;-69
2022/01/29 09:57:37;;;;;;;0.23;0.03;;;;;;;;;;5115109;28;20087;-68
2022/01/29 10:00:05;;;;;;;0.10;0.10;;;;;;;;;;5111125;28;20024;-70
2022/01/29 10:02:32;;;;;;;0.00;0.00;;;;;;;;;;5130276;27;20050;-69
2022/01/29 10:04:59;;;;;;;0.00;0.00;;;;;;;;;;5111293;28;20030;-69
2022/01/29 10:07:27;;;;;;;1.47;0.10;;;;;;;;;;5111875;28;20508;-68
2022/01/29 10:09:56;;;;;;;0.00;0.00;;;;;;;;;;5116211;28;20020;-68
2022/01/29 10:12:27;;;;;;;0.00;0.00;;;;;;;;;;5116470;28;20423;-68
2022/01/29 10:14:55;;;;;;;1.80;0.00;;;;;;;;;;5116333;28;20024;-68
2022/01/29 10:17:40;;;;;;;0.00;0.00;;;;;;;;;;5115849;28;20027;-68
2022/01/29 10:20:11;;;;;;;2.63;0.08;;;;;;;;;;5113804;27;20024;-68
2022/01/29 10:22:39;;;;;;;0.20;0.07;;;;;;;;;;5090525;28;20556;-68
2022/01/29 10:25:06;;;;;;;1.50;0.00;;;;;;;;;;5090398;28;20371;-68
2022/01/29 10:27:33;;;;;;;0.10;0.00;;;;;;;;;;5089950;28;20149;-68
2022/01/29 10:30:00;;;;;;;0.10;0.00;;;;;;;;;;5091956;28;20106;-68
2022/01/29 10:32:28;;;;;;;0.83;0.00;;;;;;;;;;5095488;28;20101;-68
2022/01/29 10:34:56;;;;;;;0.00;0.00;;;;;;;;;;5095540;28;20077;-68
2022/01/29 10:37:24;;;;;;;0.20;0.00;;;;;;;;;;5095497;28;20027;-67
2022/01/29 10:39:53;;;;;;;0.10;0.10;;;;;;;;;;5096805;27;20062;-68
2022/01/29 10:42:27;;;;;;;0.00;0.00;;;;;;;;;;5133568;27;20066;-68
2022/01/29 10:45:02;;;;;;;0.00;0.00;;;;;;;;;;5130790;27;20282;-68
2022/01/29 10:47:28;;;;;;;;;;;;;;;;;;5131378;27;20023;-68
2022/01/29 10:49:57;;;;;;;0.10;0.00;;;;;;;;;;5130236;27;20332;-68
2022/01/29 10:52:28;;;;;;;0.53;0.10;;;;;;;;;;5133070;27;20023;-68
2022/01/29 10:54:59;;;;;;;0.00;0.00;;;;;;;;;;5135858;27;20332;-68
2022/01/29 10:57:36;;;;;;;0.10;0.00;;;;;;;;;;5118557;27;20276;-68
2022/01/29 11:00:05;;;;;;;0.10;0.00;;;;;;;;;;5115447;28;20305;-68
2022/01/29 11:02:32;;;;;;;0.17;0.10;;;;;;;;;;5115281;28;20280;-68
2022/01/29 11:05:04;;;;;;;0.00;0.00;;;;;;;;;;5112000;28;20260;-68
2022/01/29 11:07:31;;;;;;;1.10;0.10;;;;;;;;;;5110037;28;20255;-68
2022/01/29 11:10:01;;;;;;;0.10;0.10;;;;;;;;;;5109941;28;20263;-68
2022/01/29 11:12:30;;;;;;;0.00;0.00;;;;;;;;;;5109820;28;20584;-68
2022/01/29 11:15:02;;;;;;;0.13;0.10;;;;;;;;;;5128921;27;20367;-67
2022/01/29 11:17:30;;;;;;;0.00;0.00;;;;;;;;;;5135538;27;20590;-68
2022/01/29 11:19:57;;;;;;;0.60;0.13;;;;;;;;;;5135355;27;20258;-68
2022/01/29 11:22:28;;;;;;;0.10;0.10;;;;;;;;;;5135564;27;20287;-68
2022/01/29 11:25:03;;;;;;;0.30;0.10;;;;;;;;;;5135472;27;20263;-68
2022/01/29 11:27:30;;;;;;;0.13;0.03;;;;;;;;;;5131539;27;20259;-68
2022/01/29 11:30:01;;;;;;;5.00;0.10;;;;;;;;;;5130035;27;20308;-68
2022/01/29 11:32:29;;;;;;;0.20;0.10;;;;;;;;;;5110326;27;20268;-68
2022/01/29 11:34:59;;;;;;;0.00;0.00;;;;;;;;;;5109446;28;20294;-67
2022/01/29 11:37:44;;;;;;;2.47;0.20;;;;;;;;;;5112845;28;20301;-68
2022/01/29 11:40:15;;;;;;;1.50;0.30;;;;;;;;;;5114585;28;20757;-67
2022/01/29 11:42:51;;;;;;;0.27;0.27;;;;;;;;;;5114484;28;20027;-68
2022/01/29 11:45:46;;;;;;;1.13;0.30;;;;;;;;;;5114421;28;20588;-67
2022/01/29 11:48:35;;;;;;;0.23;0.13;;;;;;;;;;5108757;27;21140;-68
2022/01/29 11:51:05;;;;;;;0.00;0.00;;;;;;;;;;5127039;27;20267;-67
2022/01/29 11:53:51;;;;;;;0.10;0.10;;;;;;;;;;5129587;27;20259;-68
2022/01/29 11:56:38;;;;;;;0.10;0.10;;;;;;;;;;5129473;27;20268;-68
2022/01/29 11:59:28;;;;;;;1.60;0.27;;;;;;;;;;5131892;27;20542;-68
2022/01/29 12:01:56;;;;;;;0.20;0.10;;;;;;;;;;5133224;27;20358;-67
2022/01/29 12:04:24;;;;;;;0.10;0.10;;;;;;;;;;5134694;27;20255;-67
2022/01/29 12:09:47;;;;;;;0.20;0.10;;;;;;;;;;5114038;28;20260;-67
2022/01/29 12:12:36;;;;;;;0.67;0.20;;;;;;;;;;5109480;28;20030;-67
2022/01/29 12:15:12;;;;;;;0.60;0.10;;;;;;;;;;5103457;27;20354;-67
2022/01/29 12:17:46;;;;;;;0.20;0.00;;;;;;;;;;5129100;27;20328;-67
2022/01/29 12:20:14;;;;;;;0.47;0.20;;;;;;;;;;5129138;27;20682;-68
2022/01/29 12:22:42;;;;;;;0.30;0.10;;;;;;;;;;5134171;27;20279;-67
2022/01/29 12:25:14;;;;;;;0.23;0.17;;;;;;;;;;5134337;27;20248;-68
2022/01/29 12:27:40;;;;;;;0.43;0.20;;;;;;;;;;5134118;27;20244;-67
2022/01/29 12:30:07;;;;;;;0.30;0.00;;;;;;;;;;5127492;27;20290;-67
2022/01/29 12:32:34;;;;;;;0.93;0.13;;;;;;;;;;5112522;28;21038;-68
2022/01/29 12:35:03;;;;;;;0.83;0.27;;;;;;;;;;5108315;28;20256;-68
2022/01/29 12:37:30;;;;;;;0.90;0.40;;;;;;;;;;5108326;28;21037;-67
2022/01/29 12:40:06;;;;;;;1.33;0.60;;;;;;;;;;5108215;28;21280;-67
2022/01/29 12:42:56;;;;;;;1.67;0.93;;;;;;;;;;5108618;28;20417;-67
2022/01/29 12:45:24;;;;;;;2.50;0.80;;;;;;;;;;5113307;28;20263;-67
2022/01/29 12:47:50;;;;;;;0.97;0.30;;;;;;;;;;5119605;27;20259;-67
2022/01/29 12:50:23;;;;;;;1.30;0.30;;;;;;;;;;5133785;27;20251;-67
2022/01/29 12:53:04;;;;;;;1.40;0.30;;;;;;;;;;5133838;27;20247;-66
2022/01/29 12:55:30;;;;;;;4.37;0.90;;;;;;;;;;5108400;27;20276;-67
2022/01/29 12:57:57;;;;;;;2.93;0.60;;;;;;;;;;5108129;28;20252;-67
2022/01/29 13:00:24;;;;;;;0.60;0.40;;;;;;;;;;5107637;28;20735;-67
2022/01/29 13:02:51;;;;;;;2.47;0.20;;;;;;;;;;5107854;28;20283;-67
2022/01/29 13:05:17;;;;;;;3.40;1.27;;;;;;;;;;5109338;28;20264;-67
2022/01/29 13:07:49;;;;;;;3.10;1.07;;;;;;;;;;5112581;28;20256;-68
2022/01/29 13:10:15;;;;;;;1.30;0.60;;;;;;;;;;5113006;28;20248;-66
2022/01/29 13:12:46;;;;;;;2.03;0.40;;;;;;;;;;5129548;27;20317;-67
2022/01/29 13:15:13;;;;;;;2.80;0.60;;;;;;;;;;5133535;27;20255;-67
2022/01/29 13:17:44;;;;;;;3.20;0.77;;;;;;;;;;5130897;27;20630;-67
2022/01/29 13:20:11;;;;;;;0.93;0.70;;;;;;;;;;5126232;27;20263;-68
2022/01/29 13:22:40;;;;;;;5.60;3.30;;;;;;;;;;5127809;27;20287;-67
2022/01/29 13:25:08;;;;;;;6.17;1.90;;;;;;;;;;5128300;27;20347;-67
2022/01/29 13:27:37;;;;;;;1.53;0.80;;;;;;;;;;5130023;28;20247;-66
2022/01/29 13:30:21;;;;;;;0.80;0.50;;;;;;;;;;5133304;28;20271;-67
2022/01/29 13:32:52;;;;;;;1.20;0.40;;;;;;;;;;5133017;28;20244;-67
2022/01/29 13:35:29;;;;;;;2.53;1.47;;;;;;;;;;5132894;28;20275;-68
2022/01/29 13:38:14;;;;;;;2.20;0.60;;;;;;;;;;5128869;28;20291;-67
2022/01/29 13:40:42;;;;;;;2.70;1.40;;;;;;;;;;5108091;28;20038;-68
2022/01/29 13:43:10;;;;;;;0.77;0.40;;;;;;;;;;5107531;28;20020;-67
2022/01/29 13:45:51;;;;;;;6.33;0.73;;;;;;;;;;5107507;28;20252;-67
2022/01/29 13:48:18;;;;;;;3.20;1.73;;;;;;;;;;5107315;28;20318;-66
2022/01/29 13:50:46;;;;;;;0.97;0.50;;;;;;;;;;5111633;28;20327;-67
2022/01/29 13:53:12;;;;;;;1.10;0.50;;;;;;;;;;5112080;28;20263;-67
2022/01/29 13:55:41;;;;;;;2.87;0.47;;;;;;;;;;5112525;28;20340;-68
2022/01/29 13:58:09;;;;;;;1.20;0.57;;;;;;;;;;5121875;28;20305;-68
2022/01/29 14:00:57;;;;;;;3.57;0.40;;;;;;;;;;5133028;28;20266;-68
2022/01/29 14:03:42;;;;;;;2.00;1.00;;;;;;;;;;5127442;28;20248;-67
2022/01/29 14:06:32;;;;;;;1.25;0.40;;;;;;;;;;5127658;28;20288;-68
2022/01/29 14:09:07;;;;;;;0.60;0.30;;;;;;;;;;5127535;28;20410;-68
2022/01/29 14:11:52;;;;;;;1.13;0.40;;;;;;;;;;5128732;28;20035;-68
2022/01/29 14:14:19;;;;;;;1.08;0.63;;;;;;;;;;5133052;28;20338;-68
2022/01/29 14:16:46;;;;;;;1.00;0.50;;;;;;;;;;5132552;28;20062;-69
2022/01/29 14:19:17;;;;;;;4.17;0.70;;;;;;;;;;5091864;28;20070;-68
2022/01/29 14:21:43;;;;;;;2.10;0.70;;;;;;;;;;5091685;28;20035;-68
2022/01/29 14:24:11;;;;;;;0.83;0.30;;;;;;;;;;5104440;27;20092;-69
2022/01/29 14:26:37;;;;;;;1.03;0.53;;;;;;;;;;5131158;27;20023;-69
2022/01/29 14:29:04;;;;;;;1.13;0.40;;;;;;;;;;5131329;27;20015;-69
2022/01/29 14:31:31;;;;;;;0.50;0.30;;;;;;;;;;5131404;27;20027;-69
2022/01/29 14:33:59;;;;;;;0.70;0.50;;;;;;;;;;5133073;27;20432;-68
2022/01/29 14:36:25;;;;;;;1.30;0.40;;;;;;;;;;5135975;27;20058;-69
2022/01/29 14:38:52;;;;;;;1.17;0.40;;;;;;;;;;5136345;27;20030;-68
2022/01/29 14:41:19;;;;;;;2.17;0.77;;;;;;;;;;5133209;27;20071;-68
2022/01/29 14:43:46;;;;;;;1.93;0.67;;;;;;;;;;5115767;28;20019;-69
2022/01/29 14:46:12;;;;;;;14.53;1.70;;;;;;;;;;5113331;28;20031;-69
2022/01/29 14:48:39;;;;;;;5.17;0.37;;;;;;;;;;5110474;28;20040;-69
2022/01/29 14:51:08;;;;;;;0.77;0.30;;;;;;;;;;5110017;28;20098;-69
2022/01/29 14:53:36;;;;;;;0.83;0.40;;;;;;;;;;5110296;28;20054;-69
2022/01/29 14:56:03;;;;;;;2.47;0.40;;;;;;;;;;5111699;28;20470;-69
2022/01/29 14:58:29;;;;;;;1.00;0.37;;;;;;;;;;5115643;28;20027;-69
2022/01/29 15:00:56;;;;;;;5.50;2.30;;;;;;;;;;5115234;28;20035;-69
2022/01/29 15:03:23;;;;;;;2.23;0.20;;;;;;;;;;5114386;28;20461;-69
2022/01/29 15:05:50;;;;;;;1.57;0.30;;;;;;;;;;5115319;28;20134;-69